sensor_id;sensor_type;location;lat;lon;timestamp;pressure;altitude;pressure_sealevel;temperature;humidity
70589;BME280;58152;49.202;18.744;2023-05-15T00:02:16;96640.47;;;12.63;72.76
70589;BME280;58152;49.202;18.744;2023-05-15T00:04:42;96631.84;;;12.61;73.15
70589;BME280;58152;49.202;18.744;2023-05-15T00:07:07;96626.66;;;12.59;72.92
70589;BME280;58152;49.202;18.744;2023-05-15T00:09:33;96631.06;;;12.59;72.70
70589;BME280;58152;49.202;18.744;2023-05-15T00:11:58;96632.13;;;12.56;72.88
70589;BME280;58152;49.202;18.744;2023-05-15T00:14:24;96632.88;;;12.58;72.91
70589;BME280;58152;49.202;18.744;2023-05-15T00:16:49;96641.06;;;12.54;73.20
70589;BME280;58152;49.202;18.744;2023-05-15T00:19:15;96631.38;;;12.54;73.09
70589;BME280;58152;49.202;18.744;2023-05-15T00:21:41;96631.66;;;12.50;73.12
70589;BME280;58152;49.202;18.744;2023-05-15T00:24:06;96635.44;;;12.45;73.09
70589;BME280;58152;49.202;18.744;2023-05-15T00:26:35;96634.53;;;12.46;73.19
70589;BME280;58152;49.202;18.744;2023-05-15T00:29:01;96629.03;;;12.50;73.25
70589;BME280;58152;49.202;18.744;2023-05-15T00:31:26;96630.00;;;12.49;73.71
70589;BME280;58152;49.202;18.744;2023-05-15T00:33:52;96621.16;;;12.50;73.21
70589;BME280;58152;49.202;18.744;2023-05-15T00:36:17;96611.38;;;12.52;73.17
70589;BME280;58152;49.202;18.744;2023-05-15T00:38:48;96609.59;;;12.52;73.20
70589;BME280;58152;49.202;18.744;2023-05-15T00:41:14;96594.84;;;12.50;73.47
70589;BME280;58152;49.202;18.744;2023-05-15T00:43:41;96595.69;;;12.50;73.44
70589;BME280;58152;49.202;18.744;2023-05-15T00:46:08;96599.06;;;12.52;73.30
70589;BME280;58152;49.202;18.744;2023-05-15T00:48:34;96591.91;;;12.54;73.39
70589;BME280;58152;49.202;18.744;2023-05-15T00:51:00;96592.13;;;12.51;73.25
70589;BME280;58152;49.202;18.744;2023-05-15T00:53:26;96590.22;;;12.53;73.38
70589;BME280;58152;49.202;18.744;2023-05-15T00:55:57;96574.00;;;12.46;73.42
70589;BME280;58152;49.202;18.744;2023-05-15T00:58:23;96588.72;;;12.49;73.03
70589;BME280;58152;49.202;18.744;2023-05-15T01:00:51;96578.31;;;12.48;72.82
70589;BME280;58152;49.202;18.744;2023-05-15T01:03:17;96585.44;;;12.45;73.31
70589;BME280;58152;49.202;18.744;2023-05-15T01:05:43;96571.56;;;12.43;73.14
70589;BME280;58152;49.202;18.744;2023-05-15T01:08:15;96572.09;;;12.49;73.10
70589;BME280;58152;49.202;18.744;2023-05-15T01:10:44;96579.34;;;12.45;73.52
70589;BME280;58152;49.202;18.744;2023-05-15T01:13:13;96575.69;;;12.48;72.76
70589;BME280;58152;49.202;18.744;2023-05-15T01:15:38;96571.56;;;12.43;73.26
70589;BME280;58152;49.202;18.744;2023-05-15T01:18:05;96568.19;;;12.41;72.84
70589;BME280;58152;49.202;18.744;2023-05-15T01:20:33;96571.75;;;12.40;73.01
70589;BME280;58152;49.202;18.744;2023-05-15T01:23:15;96579.47;;;12.43;73.45
70589;BME280;58152;49.202;18.744;2023-05-15T01:25:52;96585.97;;;12.38;73.67
70589;BME280;58152;49.202;18.744;2023-05-15T01:28:29;96582.56;;;12.36;73.36
70589;BME280;58152;49.202;18.744;2023-05-15T01:30:56;96578.06;;;12.38;73.80
70589;BME280;58152;49.202;18.744;2023-05-15T01:33:33;96572.91;;;12.36;73.43
70589;BME280;58152;49.202;18.744;2023-05-15T01:36:23;96579.22;;;12.34;73.73
70589;BME280;58152;49.202;18.744;2023-05-15T01:38:53;96577.06;;;12.26;73.48
70589;BME280;58152;49.202;18.744;2023-05-15T01:41:27;96575.69;;;12.20;73.80
70589;BME280;58152;49.202;18.744;2023-05-15T01:44:01;96573.06;;;12.20;74.45
70589;BME280;58152;49.202;18.744;2023-05-15T01:46:29;96568.81;;;12.18;73.83
70589;BME280;58152;49.202;18.744;2023-05-15T01:48:57;96569.38;;;12.23;73.61
70589;BME280;58152;49.202;18.744;2023-05-15T01:51:22;96575.28;;;12.27;73.94
70589;BME280;58152;49.202;18.744;2023-05-15T01:53:50;96578.66;;;12.29;73.91
70589;BME280;58152;49.202;18.744;2023-05-15T01:56:17;96576.97;;;12.28;73.87
70589;BME280;58152;49.202;18.744;2023-05-15T01:58:45;96582.16;;;12.29;73.55
70589;BME280;58152;49.202;18.744;2023-05-15T02:01:13;96579.28;;;12.32;74.00
70589;BME280;58152;49.202;18.744;2023-05-15T02:03:40;96575.94;;;12.30;73.96
70589;BME280;58152;49.202;18.744;2023-05-15T02:06:07;96577.63;;;12.31;73.61
70589;BME280;58152;49.202;18.744;2023-05-15T02:08:33;96581.84;;;12.34;73.97
70589;BME280;58152;49.202;18.744;2023-05-15T02:11:01;96576.97;;;12.28;74.08
70589;BME280;58152;49.202;18.744;2023-05-15T02:13:29;96571.91;;;12.25;74.33
70589;BME280;58152;49.202;18.744;2023-05-15T02:15:55;96577.06;;;12.26;73.88
70589;BME280;58152;49.202;18.744;2023-05-15T02:18:21;96575.38;;;12.25;74.42
70589;BME280;58152;49.202;18.744;2023-05-15T02:20:47;96572.88;;;12.24;73.91
70589;BME280;58152;49.202;18.744;2023-05-15T02:23:12;96573.72;;;12.24;74.03
70589;BME280;58152;49.202;18.744;2023-05-15T02:28:57;96571.56;;;12.16;74.51
70589;BME280;58152;49.202;18.744;2023-05-15T02:31:38;96566.13;;;12.19;73.92
70589;BME280;58152;49.202;18.744;2023-05-15T02:34:15;96557.38;;;12.19;73.92
70589;BME280;58152;49.202;18.744;2023-05-15T02:36:45;96552.97;;;12.19;74.82
70589;BME280;58152;49.202;18.744;2023-05-15T02:39:12;96556.50;;;12.18;74.19
70589;BME280;58152;49.202;18.744;2023-05-15T02:41:40;96536.44;;;12.17;74.84
70589;BME280;58152;49.202;18.744;2023-05-15T02:44:06;96533.16;;;12.14;74.71
70589;BME280;58152;49.202;18.744;2023-05-15T02:46:32;96528.47;;;12.19;74.67
70589;BME280;58152;49.202;18.744;2023-05-15T02:48:58;96531.94;;;12.19;74.65
70589;BME280;58152;49.202;18.744;2023-05-15T02:51:24;96530.03;;;12.21;74.88
70589;BME280;58152;49.202;18.744;2023-05-15T02:53:50;96520.47;;;12.20;75.21
70589;BME280;58152;49.202;18.744;2023-05-15T02:56:16;96504.88;;;12.17;75.24
70589;BME280;58152;49.202;18.744;2023-05-15T02:58:41;96510.59;;;12.24;74.85
70589;BME280;58152;49.202;18.744;2023-05-15T03:01:07;96515.31;;;12.19;74.80
70589;BME280;58152;49.202;18.744;2023-05-15T03:03:32;96529.31;;;12.19;75.14
70589;BME280;58152;49.202;18.744;2023-05-15T03:05:58;96517.28;;;12.15;75.76
70589;BME280;58152;49.202;18.744;2023-05-15T03:08:25;96512.09;;;12.14;75.54
70589;BME280;58152;49.202;18.744;2023-05-15T03:10:50;96513.06;;;12.13;75.32
70589;BME280;58152;49.202;18.744;2023-05-15T03:13:16;96517.47;;;12.12;75.41
70589;BME280;58152;49.202;18.744;2023-05-15T03:15:47;96519.38;;;12.10;75.58
70589;BME280;58152;49.202;18.744;2023-05-15T03:18:13;96536.06;;;12.09;75.13
70589;BME280;58152;49.202;18.744;2023-05-15T03:20:41;96546.50;;;12.11;74.83
70589;BME280;58152;49.202;18.744;2023-05-15T03:23:09;96526.72;;;12.05;75.15
70589;BME280;58152;49.202;18.744;2023-05-15T03:25:38;96531.97;;;12.05;75.30
70589;BME280;58152;49.202;18.744;2023-05-15T03:28:03;96540.41;;;12.10;75.28
70589;BME280;58152;49.202;18.744;2023-05-15T03:30:31;96540.19;;;12.13;75.58
70589;BME280;58152;49.202;18.744;2023-05-15T03:32:56;96541.31;;;12.09;75.25
70589;BME280;58152;49.202;18.744;2023-05-15T03:35:22;96539.00;;;12.05;76.14
70589;BME280;58152;49.202;18.744;2023-05-15T03:37:47;96527.94;;;12.00;76.19
70589;BME280;58152;49.202;18.744;2023-05-15T03:40:13;96528.41;;;12.06;76.39
70589;BME280;58152;49.202;18.744;2023-05-15T03:42:38;96523.69;;;12.11;75.92
70589;BME280;58152;49.202;18.744;2023-05-15T03:45:04;96506.13;;;12.12;75.65
70589;BME280;58152;49.202;18.744;2023-05-15T03:47:30;96509.41;;;12.15;75.80
70589;BME280;58152;49.202;18.744;2023-05-15T03:49:55;96498.13;;;12.13;76.11
70589;BME280;58152;49.202;18.744;2023-05-15T03:52:21;96491.19;;;12.12;75.50
70589;BME280;58152;49.202;18.744;2023-05-15T03:54:46;96488.75;;;12.09;75.56
70589;BME280;58152;49.202;18.744;2023-05-15T03:57:12;96497.59;;;12.08;76.23
70589;BME280;58152;49.202;18.744;2023-05-15T03:59:37;96507.16;;;12.09;76.24
70589;BME280;58152;49.202;18.744;2023-05-15T04:02:03;96504.75;;;12.06;75.80
70589;BME280;58152;49.202;18.744;2023-05-15T04:04:28;96502.09;;;12.06;75.64
70589;BME280;58152;49.202;18.744;2023-05-15T04:06:54;96501.06;;;12.09;75.76
70589;BME280;58152;49.202;18.744;2023-05-15T04:09:19;96497.81;;;12.05;75.87
70589;BME280;58152;49.202;18.744;2023-05-15T04:11:44;96498.63;;;12.06;76.03
70589;BME280;58152;49.202;18.744;2023-05-15T04:14:11;96496.63;;;12.09;75.14
70589;BME280;58152;49.202;18.744;2023-05-15T04:16:36;96492.03;;;12.13;76.01
70589;BME280;58152;49.202;18.744;2023-05-15T04:19:02;96491.19;;;12.12;75.21
70589;BME280;58152;49.202;18.744;2023-05-15T04:21:27;96486.88;;;12.11;75.78
70589;BME280;58152;49.202;18.744;2023-05-15T04:23:52;96495.41;;;12.15;75.90
70589;BME280;58152;49.202;18.744;2023-05-15T04:26:18;96493.50;;;12.17;76.61
70589;BME280;58152;49.202;18.744;2023-05-15T04:28:43;96485.81;;;12.14;76.37
70589;BME280;58152;49.202;18.744;2023-05-15T04:31:09;96490.03;;;12.16;76.08
70589;BME280;58152;49.202;18.744;2023-05-15T04:33:34;96487.41;;;12.16;76.81
70589;BME280;58152;49.202;18.744;2023-05-15T04:36:00;96471.81;;;12.13;76.53
70589;BME280;58152;49.202;18.744;2023-05-15T04:38:26;96482.81;;;12.20;76.19
70589;BME280;58152;49.202;18.744;2023-05-15T04:40:51;96478.19;;;12.24;76.15
70589;BME280;58152;49.202;18.744;2023-05-15T04:43:16;96481.44;;;12.27;75.86
70589;BME280;58152;49.202;18.744;2023-05-15T04:45:42;96472.81;;;12.25;76.61
70589;BME280;58152;49.202;18.744;2023-05-15T04:48:07;96475.56;;;12.24;76.10
70589;BME280;58152;49.202;18.744;2023-05-15T04:50:33;96482.50;;;12.25;76.57
70589;BME280;58152;49.202;18.744;2023-05-15T04:52:58;96480.72;;;12.25;76.05
70589;BME280;58152;49.202;18.744;2023-05-15T04:55:23;96489.44;;;12.26;76.67
70589;BME280;58152;49.202;18.744;2023-05-15T04:57:49;96482.81;;;12.20;76.78
70589;BME280;58152;49.202;18.744;2023-05-15T05:00:15;96492.06;;;12.26;76.48
70589;BME280;58152;49.202;18.744;2023-05-15T05:02:41;96490.41;;;12.25;76.22
70589;BME280;58152;49.202;18.744;2023-05-15T05:05:09;96489.44;;;12.26;76.33
70589;BME280;58152;49.202;18.744;2023-05-15T05:07:35;96483.22;;;12.27;76.43
70589;BME280;58152;49.202;18.744;2023-05-15T05:10:01;96474.41;;;12.28;76.52
70589;BME280;58152;49.202;18.744;2023-05-15T05:12:26;96473.47;;;12.29;76.48
70589;BME280;58152;49.202;18.744;2023-05-15T05:14:52;96467.25;;;12.30;76.52
70589;BME280;58152;49.202;18.744;2023-05-15T05:17:23;96466.41;;;12.29;76.68
70589;BME280;58152;49.202;18.744;2023-05-15T05:19:49;96468.09;;;12.30;76.67
70589;BME280;58152;49.202;18.744;2023-05-15T05:22:14;96471.25;;;12.35;76.70
70589;BME280;58152;49.202;18.744;2023-05-15T05:24:40;96463.56;;;12.32;76.55
70589;BME280;58152;49.202;18.744;2023-05-15T05:27:05;96477.16;;;12.39;76.54
70589;BME280;58152;49.202;18.744;2023-05-15T05:29:31;96474.66;;;12.37;76.77
70589;BME280;58152;49.202;18.744;2023-05-15T05:31:57;96479.69;;;12.40;76.34
70589;BME280;58152;49.202;18.744;2023-05-15T05:34:22;96476.56;;;12.48;76.32
70589;BME280;58152;49.202;18.744;2023-05-15T05:36:48;96481.41;;;12.54;76.01
70589;BME280;58152;49.202;18.744;2023-05-15T05:50:23;96471.94;;;12.52;76.34
70589;BME280;58152;49.202;18.744;2023-05-15T06:00:13;96481.50;;;12.53;76.85
70589;BME280;58152;49.202;18.744;2023-05-15T06:06:32;96485.09;;;12.52;77.00
70589;BME280;58152;49.202;18.744;2023-05-15T06:08:58;96478.66;;;12.43;76.91
70589;BME280;58152;49.202;18.744;2023-05-15T06:11:51;96476.88;;;12.43;77.03
70589;BME280;58152;49.202;18.744;2023-05-15T06:14:47;96484.75;;;12.43;77.52
70589;BME280;58152;49.202;18.744;2023-05-15T06:17:15;96478.84;;;12.40;77.45
70589;BME280;58152;49.202;18.744;2023-05-15T06:20:32;96495.63;;;12.52;77.43
70589;BME280;58152;49.202;18.744;2023-05-15T06:23:50;96501.19;;;12.47;77.52
70589;BME280;58152;49.202;18.744;2023-05-15T06:30:00;96503.81;;;12.47;77.40
70589;BME280;58152;49.202;18.744;2023-05-15T06:32:52;96489.38;;;12.40;77.84
70589;BME280;58152;49.202;18.744;2023-05-15T06:35:39;96491.88;;;12.41;77.56
70589;BME280;58152;49.202;18.744;2023-05-15T06:38:15;96495.41;;;12.42;77.67
70589;BME280;58152;49.202;18.744;2023-05-15T06:41:05;96500.44;;;12.45;77.75
70589;BME280;58152;49.202;18.744;2023-05-15T06:44:19;96478.75;;;12.41;77.58
70589;BME280;58152;49.202;18.744;2023-05-15T06:47:32;96494.97;;;12.48;77.37
70589;BME280;58152;49.202;18.744;2023-05-15T06:57:07;96483.19;;;12.54;77.55
70589;BME280;58152;49.202;18.744;2023-05-15T06:59:43;96478.88;;;12.53;78.27
70589;BME280;58152;49.202;18.744;2023-05-15T07:02:09;96487.94;;;12.61;77.60
70589;BME280;58152;49.202;18.744;2023-05-15T07:04:40;96484.78;;;12.56;77.80
70589;BME280;58152;49.202;18.744;2023-05-15T07:07:05;96484.38;;;12.62;78.18
70589;BME280;58152;49.202;18.744;2023-05-15T07:09:33;96484.56;;;12.59;78.47
70589;BME280;58152;49.202;18.744;2023-05-15T07:11:59;96491.13;;;12.66;78.10
70589;BME280;58152;49.202;18.744;2023-05-15T07:14:31;96491.75;;;12.70;78.16
70589;BME280;58152;49.202;18.744;2023-05-15T07:16:56;96496.25;;;12.68;78.37
70589;BME280;58152;49.202;18.744;2023-05-15T07:19:22;96496.25;;;12.68;78.51
70589;BME280;58152;49.202;18.744;2023-05-15T07:21:47;96494.47;;;12.68;78.55
70589;BME280;58152;49.202;18.744;2023-05-15T07:24:13;96497.94;;;12.69;78.46
70589;BME280;58152;49.202;18.744;2023-05-15T07:26:38;96495.22;;;12.70;78.53
70589;BME280;58152;49.202;18.744;2023-05-15T07:29:10;96496.06;;;12.71;78.85
70589;BME280;58152;49.202;18.744;2023-05-15T07:31:39;96492.59;;;12.70;78.34
70589;BME280;58152;49.202;18.744;2023-05-15T07:34:06;96499.34;;;12.75;78.53
70589;BME280;58152;49.202;18.744;2023-05-15T07:36:32;96486.91;;;12.77;78.52
70589;BME280;58152;49.202;18.744;2023-05-15T07:39:17;96490.28;;;12.79;78.44
70589;BME280;58152;49.202;18.744;2023-05-15T07:41:50;96486.47;;;12.83;78.75
70589;BME280;58152;49.202;18.744;2023-05-15T07:44:25;96490.72;;;12.85;79.13
70589;BME280;58152;49.202;18.744;2023-05-15T07:46:50;96486.94;;;12.89;78.98
70589;BME280;58152;49.202;18.744;2023-05-15T07:49:18;96502.09;;;12.98;78.97
70589;BME280;58152;49.202;18.744;2023-05-15T07:51:44;96481.22;;;12.95;78.75
70589;BME280;58152;49.202;18.744;2023-05-15T07:54:13;96492.84;;;13.06;78.56
70589;BME280;58152;49.202;18.744;2023-05-15T07:56:38;96488.19;;;13.09;78.79
70589;BME280;58152;49.202;18.744;2023-05-15T07:59:05;96482.50;;;13.15;78.34
70589;BME280;58152;49.202;18.744;2023-05-15T08:01:31;96481.56;;;13.16;78.48
70589;BME280;58152;49.202;18.744;2023-05-15T08:03:57;96501.81;;;13.29;78.77
70589;BME280;58152;49.202;18.744;2023-05-15T08:06:22;96493.91;;;13.29;78.53
70589;BME280;58152;49.202;18.744;2023-05-15T08:08:49;96496.44;;;13.30;78.54
70589;BME280;58152;49.202;18.744;2023-05-15T08:11:17;96505.56;;;13.37;78.48
70589;BME280;58152;49.202;18.744;2023-05-15T08:13:42;96494.31;;;13.35;78.47
70589;BME280;58152;49.202;18.744;2023-05-15T08:16:08;96499.06;;;13.43;78.27
70589;BME280;58152;49.202;18.744;2023-05-15T08:18:33;96500.84;;;13.42;77.94
70589;BME280;58152;49.202;18.744;2023-05-15T08:20:59;96506.22;;;13.41;77.59
70589;BME280;58152;49.202;18.744;2023-05-15T08:23:24;96506.53;;;13.36;77.68
70589;BME280;58152;49.202;18.744;2023-05-15T08:25:49;96503.25;;;13.33;77.98
70589;BME280;58152;49.202;18.744;2023-05-15T08:28:15;96505.28;;;13.29;78.09
70589;BME280;58152;49.202;18.744;2023-05-15T08:30:41;96521.09;;;13.29;77.87
70589;BME280;58152;49.202;18.744;2023-05-15T08:33:06;96519.69;;;13.23;77.65
70589;BME280;58152;49.202;18.744;2023-05-15T08:35:31;96524.97;;;13.23;77.82
70589;BME280;58152;49.202;18.744;2023-05-15T08:37:58;96536.25;;;13.26;77.75
70589;BME280;58152;49.202;18.744;2023-05-15T08:40:26;96525.84;;;13.24;77.75
70589;BME280;58152;49.202;18.744;2023-05-15T08:42:54;96521.41;;;13.25;77.41
70589;BME280;58152;49.202;18.744;2023-05-15T08:45:20;96532.47;;;13.30;77.44
70589;BME280;58152;49.202;18.744;2023-05-15T08:47:46;96516.66;;;13.30;78.28
70589;BME280;58152;49.202;18.744;2023-05-15T08:50:13;96534.56;;;13.37;77.84
70589;BME280;58152;49.202;18.744;2023-05-15T08:52:44;96522.44;;;13.35;78.17
70589;BME280;58152;49.202;18.744;2023-05-15T08:55:12;96523.19;;;13.37;78.15
70589;BME280;58152;49.202;18.744;2023-05-15T08:57:38;96535.19;;;13.41;78.26
70589;BME280;58152;49.202;18.744;2023-05-15T09:00:04;96519.19;;;13.44;78.49
70589;BME280;58152;49.202;18.744;2023-05-15T09:02:37;96514.63;;;13.46;78.36
70589;BME280;58152;49.202;18.744;2023-05-15T09:05:07;96522.22;;;13.51;78.77
70589;BME280;58152;49.202;18.744;2023-05-15T09:07:34;96530.09;;;13.63;78.89
70589;BME280;58152;49.202;18.744;2023-05-15T09:10:01;96522.72;;;13.68;78.48
70589;BME280;58152;49.202;18.744;2023-05-15T09:12:31;96529.91;;;13.66;78.32
70589;BME280;58152;49.202;18.744;2023-05-15T09:15:08;96534.94;;;13.69;78.66
70589;BME280;58152;49.202;18.744;2023-05-15T09:17:34;96546.13;;;13.73;78.75
70589;BME280;58152;49.202;18.744;2023-05-15T09:20:01;96534.84;;;13.71;78.35
70589;BME280;58152;49.202;18.744;2023-05-15T09:22:26;96541.78;;;13.72;78.32
70589;BME280;58152;49.202;18.744;2023-05-15T09:24:57;96546.13;;;13.73;78.22
70589;BME280;58152;49.202;18.744;2023-05-15T09:27:23;96548.97;;;13.70;78.18
70589;BME280;58152;49.202;18.744;2023-05-15T09:29:48;96546.22;;;13.71;78.02
70589;BME280;58152;49.202;18.744;2023-05-15T09:32:18;96536.41;;;13.73;78.05
70589;BME280;58152;49.202;18.744;2023-05-15T09:34:44;96545.59;;;13.81;78.27
70589;BME280;58152;49.202;18.744;2023-05-15T09:37:29;96550.72;;;13.82;78.41
70589;BME280;58152;49.202;18.744;2023-05-15T09:40:09;96548.84;;;13.84;78.40
70589;BME280;58152;49.202;18.744;2023-05-15T09:42:36;96531.94;;;13.87;78.36
70589;BME280;58152;49.202;18.744;2023-05-15T09:45:02;96532.56;;;13.90;78.30
70589;BME280;58152;49.202;18.744;2023-05-15T09:47:27;96532.56;;;13.90;78.30
70589;BME280;58152;49.202;18.744;2023-05-15T09:49:53;96545.31;;;13.96;78.33
70589;BME280;58152;49.202;18.744;2023-05-15T09:52:18;96539.19;;;13.96;78.53
70589;BME280;58152;49.202;18.744;2023-05-15T09:54:44;96543.31;;;14.00;78.49
70589;BME280;58152;49.202;18.744;2023-05-15T09:57:12;96545.09;;;13.99;78.45
70589;BME280;58152;49.202;18.744;2023-05-15T09:59:46;96543.50;;;13.97;78.38
70589;BME280;58152;49.202;18.744;2023-05-15T10:02:28;96542.47;;;13.99;78.54
70589;BME280;58152;49.202;18.744;2023-05-15T10:04:59;96540.88;;;13.97;78.61
70589;BME280;58152;49.202;18.744;2023-05-15T10:09:53;96560.81;;;14.01;78.68
70589;BME280;58152;49.202;18.744;2023-05-15T10:12:19;96566.19;;;13.99;78.49
70589;BME280;58152;49.202;18.744;2023-05-15T10:14:46;96556.03;;;14.06;78.33
70589;BME280;58152;49.202;18.744;2023-05-15T10:17:13;96558.25;;;14.12;78.30
70589;BME280;58152;49.202;18.744;2023-05-15T10:19:39;96562.03;;;14.21;78.17
70589;BME280;58152;49.202;18.744;2023-05-15T10:22:07;96556.75;;;14.21;77.68
70589;BME280;58152;49.202;18.744;2023-05-15T10:24:36;96557.97;;;14.28;77.70
70589;BME280;58152;49.202;18.744;2023-05-15T10:27:04;96568.19;;;14.33;77.19
70589;BME280;58152;49.202;18.744;2023-05-15T10:29:30;96563.16;;;14.30;77.30
70589;BME280;58152;49.202;18.744;2023-05-15T10:31:57;96555.25;;;14.30;75.93
70589;BME280;58152;49.202;18.744;2023-05-15T10:34:25;96556.31;;;14.27;75.93
70589;BME280;58152;49.202;18.744;2023-05-15T10:36:51;96552.69;;;14.28;75.52
70589;BME280;58152;49.202;18.744;2023-05-15T10:39:17;96549.09;;;14.29;75.25
70589;BME280;58152;49.202;18.744;2023-05-15T10:41:44;96555.84;;;14.33;75.37
70589;BME280;58152;49.202;18.744;2023-05-15T10:44:13;96542.56;;;14.35;75.13
70589;BME280;58152;49.202;18.744;2023-05-15T10:46:39;96559.41;;;14.45;74.51
70589;BME280;58152;49.202;18.744;2023-05-15T10:49:05;96551.34;;;14.46;74.40
70589;BME280;58152;49.202;18.744;2023-05-15T10:51:31;96546.84;;;14.48;74.45
70589;BME280;58152;49.202;18.744;2023-05-15T10:53:59;96556.81;;;14.56;74.26
70589;BME280;58152;49.202;18.744;2023-05-15T10:56:31;96546.28;;;14.56;73.93
70589;BME280;58152;49.202;18.744;2023-05-15T10:59:04;96544.13;;;14.61;74.23
70589;BME280;58152;49.202;18.744;2023-05-15T11:01:31;96542.09;;;14.65;74.35
70589;BME280;58152;49.202;18.744;2023-05-15T11:04:14;96549.94;;;14.66;73.70
70589;BME280;58152;49.202;18.744;2023-05-15T11:06:47;96555.81;;;14.70;73.84
70589;BME280;58152;49.202;18.744;2023-05-15T11:14:16;96562.81;;;14.82;72.55
70589;BME280;58152;49.202;18.744;2023-05-15T11:19:37;96548.56;;;14.85;71.95
70589;BME280;58152;49.202;18.744;2023-05-15T11:27:29;96551.50;;;15.04;70.53
70589;BME280;58152;49.202;18.744;2023-05-15T11:30:05;96550.78;;;15.13;70.83
70589;BME280;58152;49.202;18.744;2023-05-15T11:35:26;96552.38;;;15.27;70.01
70589;BME280;58152;49.202;18.744;2023-05-15T11:37:55;96551.91;;;15.22;69.61
70589;BME280;58152;49.202;18.744;2023-05-15T11:40:29;96539.97;;;15.16;69.69
70589;BME280;58152;49.202;18.744;2023-05-15T11:45:24;96541.75;;;15.05;67.84
70589;BME280;58152;49.202;18.744;2023-05-15T11:47:50;96537.53;;;15.02;67.62
70589;BME280;58152;49.202;18.744;2023-05-15T11:50:15;96537.19;;;15.07;67.53
70589;BME280;58152;49.202;18.744;2023-05-15T11:52:42;96539.47;;;15.11;67.78
70589;BME280;58152;49.202;18.744;2023-05-15T11:55:16;96539.47;;;15.11;67.52
70589;BME280;58152;49.202;18.744;2023-05-15T11:57:45;96543.56;;;15.15;67.52
70589;BME280;58152;49.202;18.744;2023-05-15T12:00:12;96540.94;;;15.15;67.29
70589;BME280;58152;49.202;18.744;2023-05-15T12:02:40;96544.19;;;15.19;68.05
70589;BME280;58152;49.202;18.744;2023-05-15T12:05:07;96536.38;;;15.17;67.83
70589;BME280;58152;49.202;18.744;2023-05-15T12:07:40;96544.31;;;15.17;67.63
70589;BME280;58152;49.202;18.744;2023-05-15T12:10:11;96546.13;;;15.17;67.81
70589;BME280;58152;49.202;18.744;2023-05-15T12:12:41;96559.22;;;15.18;68.10
70589;BME280;58152;49.202;18.744;2023-05-15T12:15:09;96563.41;;;15.21;67.76
70589;BME280;58152;49.202;18.744;2023-05-15T12:17:36;96565.19;;;15.20;67.60
70589;BME280;58152;49.202;18.744;2023-05-15T12:20:02;96558.72;;;15.13;67.24
70589;BME280;58152;49.202;18.744;2023-05-15T12:22:35;96560.53;;;15.13;67.03
70589;BME280;58152;49.202;18.744;2023-05-15T12:25:01;96556.06;;;15.13;67.46
70589;BME280;58152;49.202;18.744;2023-05-15T12:27:26;96558.44;;;15.05;67.74
70589;BME280;58152;49.202;18.744;2023-05-15T12:29:52;96569.72;;;15.07;68.12
70589;BME280;58152;49.202;18.744;2023-05-15T12:32:18;96557.63;;;15.05;68.16
70589;BME280;58152;49.202;18.744;2023-05-15T12:34:44;96569.38;;;15.12;68.91
70589;BME280;58152;49.202;18.744;2023-05-15T12:37:13;96569.16;;;15.15;68.59
70589;BME280;58152;49.202;18.744;2023-05-15T12:39:56;96580.13;;;15.21;68.94
70589;BME280;58152;49.202;18.744;2023-05-15T12:42:25;96579.50;;;15.18;69.17
70589;BME280;58152;49.202;18.744;2023-05-15T12:44:54;96576.72;;;15.19;69.32
70589;BME280;58152;49.202;18.744;2023-05-15T12:47:24;96570.63;;;15.19;69.34
70589;BME280;58152;49.202;18.744;2023-05-15T12:49:56;96571.31;;;15.21;69.56
70589;BME280;58152;49.202;18.744;2023-05-15T12:52:22;96576.72;;;15.19;69.83
70589;BME280;58152;49.202;18.744;2023-05-15T12:54:48;96580.00;;;15.23;69.72
70589;BME280;58152;49.202;18.744;2023-05-15T12:57:14;96576.72;;;15.19;69.11
70589;BME280;58152;49.202;18.744;2023-05-15T12:59:49;96581.19;;;15.19;68.97
70589;BME280;58152;49.202;18.744;2023-05-15T13:02:31;96594.25;;;15.20;68.75
70589;BME280;58152;49.202;18.744;2023-05-15T13:12:20;96590.63;;;15.10;67.59
70589;BME280;58152;49.202;18.744;2023-05-15T13:30:07;96591.13;;;15.04;66.82
70589;BME280;58152;49.202;18.744;2023-05-15T13:33:17;96584.75;;;15.07;66.09
70589;BME280;58152;49.202;18.744;2023-05-15T13:35:46;96592.38;;;15.22;66.11
70589;BME280;58152;49.202;18.744;2023-05-15T13:38:12;96589.38;;;15.27;65.30
70589;BME280;58152;49.202;18.744;2023-05-15T13:40:38;96580.84;;;15.35;65.46
70589;BME280;58152;49.202;18.744;2023-05-15T13:43:03;96586.38;;;15.32;65.10
70589;BME280;58152;49.202;18.744;2023-05-15T13:45:30;96597.66;;;15.34;65.70
70589;BME280;58152;49.202;18.744;2023-05-15T13:47:56;96587.34;;;15.31;65.53
70589;BME280;58152;49.202;18.744;2023-05-15T13:50:31;96589.03;;;15.32;65.94
70589;BME280;58152;49.202;18.744;2023-05-15T13:53:00;96590.69;;;15.33;65.77
70589;BME280;58152;49.202;18.744;2023-05-15T13:55:28;96590.34;;;15.37;65.70
70589;BME280;58152;49.202;18.744;2023-05-15T13:58:14;96594.31;;;15.43;65.17
70589;BME280;58152;49.202;18.744;2023-05-15T14:00:48;96589.88;;;15.43;64.94
70589;BME280;58152;49.202;18.744;2023-05-15T14:03:17;96590.00;;;15.42;65.13
70589;BME280;58152;49.202;18.744;2023-05-15T14:05:47;96598.91;;;15.52;64.84
70589;BME280;58152;49.202;18.744;2023-05-15T14:08:13;96599.38;;;15.57;64.44
70589;BME280;58152;49.202;18.744;2023-05-15T14:10:39;96602.84;;;15.58;64.57
70589;BME280;58152;49.202;18.744;2023-05-15T14:13:14;96609.13;;;15.57;64.41
70589;BME280;58152;49.202;18.744;2023-05-15T14:15:41;96592.91;;;15.61;64.61
70589;BME280;58152;49.202;18.744;2023-05-15T14:18:06;96601.25;;;15.68;64.31
70589;BME280;58152;49.202;18.744;2023-05-15T14:20:31;96604.94;;;15.65;63.48